createdAt,value
2022-10-11T00:00:54.465Z,13.80
2022-10-11T00:03:22.772Z,13.86
2022-10-11T00:05:50.853Z,13.88
2022-10-11T00:08:18.825Z,13.77
2022-10-11T00:10:46.804Z,13.72
2022-10-11T00:13:16.187Z,13.72
2022-10-11T00:15:44.182Z,13.66
2022-10-11T00:18:12.144Z,13.66
2022-10-11T00:20:40.109Z,13.66
2022-10-11T00:23:08.237Z,13.69
2022-10-11T00:25:36.335Z,13.64
2022-10-11T00:28:04.317Z,13.69
2022-10-11T00:30:34.020Z,13.64
2022-10-11T00:33:01.936Z,13.59
2022-10-11T00:35:29.913Z,13.74
2022-10-11T00:37:58.461Z,13.62
2022-10-11T00:40:26.559Z,13.64
2022-10-11T00:42:54.513Z,13.61
2022-10-11T00:46:05.838Z,13.59
2022-10-11T00:48:42.815Z,13.57
2022-10-11T00:51:19.272Z,13.53
2022-10-11T00:53:49.842Z,13.51
2022-10-11T00:56:24.230Z,13.43
2022-10-11T00:58:52.868Z,13.43
2022-10-11T01:01:22.509Z,13.39
2022-10-11T01:03:50.624Z,13.35
2022-10-11T01:06:18.694Z,13.33
2022-10-11T01:08:46.872Z,13.29
2022-10-11T01:11:18.355Z,13.24
2022-10-11T01:14:02.648Z,13.20
2022-10-11T01:16:42.071Z,13.16
2022-10-11T01:19:32.370Z,13.13
2022-10-11T01:22:14.000Z,13.07
2022-10-11T01:25:04.102Z,13.08
2022-10-11T01:27:45.725Z,13.05
2022-10-11T01:30:24.249Z,12.99
2022-10-11T01:33:03.382Z,13.02
2022-10-11T01:35:39.430Z,13.02
2022-10-11T01:38:13.755Z,12.95
2022-10-11T01:40:47.886Z,12.90
2022-10-11T01:43:17.988Z,12.90
2022-10-11T01:45:51.073Z,12.87
2022-10-11T01:48:19.844Z,12.89
2022-10-11T01:50:51.177Z,12.83
2022-10-11T01:53:41.802Z,12.85
2022-10-11T01:56:23.872Z,12.87
2022-10-11T01:59:08.247Z,12.83
2022-10-11T02:01:52.660Z,12.76
2022-10-11T02:04:28.529Z,12.79
2022-10-11T02:07:02.515Z,12.72
2022-10-11T02:09:39.031Z,12.73
2022-10-11T02:12:11.789Z,12.68
2022-10-11T02:14:44.016Z,12.69
2022-10-11T02:17:18.106Z,12.69
2022-10-11T02:19:51.013Z,12.72
2022-10-11T02:22:23.217Z,12.70
2022-10-11T02:24:56.651Z,12.73
2022-10-11T02:27:28.160Z,12.73
2022-10-11T02:30:01.241Z,12.75
2022-10-11T02:32:32.758Z,12.76
2022-10-11T02:35:03.170Z,12.77
2022-10-11T02:37:37.917Z,12.75
2022-10-11T02:40:13.797Z,12.80
2022-10-11T02:42:46.505Z,12.81
2022-10-11T02:45:18.710Z,12.83
2022-10-11T02:47:49.426Z,12.86
2022-10-11T02:50:17.774Z,12.84
2022-10-11T02:52:45.794Z,12.85
2022-10-11T02:55:13.779Z,12.84
2022-10-11T02:57:42.054Z,12.84
2022-10-11T03:00:11.249Z,12.79
2022-10-11T03:02:39.267Z,12.83
2022-10-11T03:05:09.429Z,12.87
2022-10-11T03:07:37.404Z,12.87
2022-10-11T03:10:05.709Z,12.90
2022-10-11T03:12:33.964Z,12.89
2022-10-11T03:15:01.952Z,12.88
2022-10-11T03:17:37.659Z,12.88
2022-10-11T03:20:06.929Z,12.88
2022-10-11T03:22:36.379Z,12.90
2022-10-11T03:25:05.058Z,12.92
2022-10-11T03:27:33.499Z,12.90
2022-10-11T03:30:01.977Z,12.92
2022-10-11T03:32:30.583Z,12.92
2022-10-11T03:34:58.840Z,12.92
2022-10-11T03:37:27.117Z,12.93
2022-10-11T03:39:56.566Z,12.88
2022-10-11T03:42:24.588Z,12.85
2022-10-11T03:44:52.616Z,12.83
2022-10-11T03:47:20.762Z,12.79
2022-10-11T03:49:48.734Z,12.77
2022-10-11T03:52:16.754Z,12.79
2022-10-11T03:54:44.832Z,12.80
2022-10-11T03:57:15.342Z,12.81
2022-10-11T03:59:44.323Z,12.81
2022-10-11T04:02:12.443Z,12.79
2022-10-11T04:04:40.526Z,12.77
2022-10-11T04:07:09.155Z,12.70
2022-10-11T04:09:37.493Z,12.70
2022-10-11T04:12:05.745Z,12.70
2022-10-11T04:14:35.168Z,12.67
2022-10-11T04:17:03.345Z,12.64
2022-10-11T04:19:31.381Z,12.60
2022-10-11T04:21:59.372Z,12.57
2022-10-11T04:24:27.396Z,12.50
2022-10-11T04:26:55.335Z,12.51
2022-10-11T04:29:23.654Z,12.48
2022-10-11T04:31:53.053Z,12.46
2022-10-11T04:34:21.079Z,12.44
2022-10-11T04:36:50.046Z,12.44
2022-10-11T04:39:18.444Z,12.52
2022-10-11T04:41:46.568Z,12.50
2022-10-11T04:44:14.864Z,12.49
2022-10-11T04:46:42.889Z,12.57
2022-10-11T04:49:12.528Z,12.68
2022-10-11T04:51:40.645Z,12.80
2022-10-11T04:54:08.701Z,12.87
2022-10-11T04:56:36.936Z,12.99
2022-10-11T04:59:05.152Z,13.09
2022-10-11T05:01:33.267Z,13.12
2022-10-11T05:04:01.383Z,13.13
2022-10-11T05:06:32.049Z,13.20
2022-10-11T05:09:00.793Z,13.27
2022-10-11T05:11:29.149Z,13.26
2022-10-11T05:13:58.186Z,13.31
2022-10-11T05:16:26.262Z,13.37
2022-10-11T05:18:54.522Z,13.46
2022-10-11T05:21:25.059Z,13.47
2022-10-11T05:23:56.401Z,13.50
2022-10-11T05:26:27.176Z,13.50
2022-10-11T05:28:55.739Z,13.63
2022-10-11T05:31:24.366Z,13.72
2022-10-11T05:33:52.463Z,13.89
2022-10-11T05:36:20.416Z,13.91
2022-10-11T05:38:49.086Z,13.92
2022-10-11T05:41:18.992Z,13.99
2022-10-11T05:43:47.115Z,14.12
2022-10-11T05:46:15.629Z,14.13
2022-10-11T05:48:43.683Z,14.13
2022-10-11T05:51:12.914Z,14.12
2022-10-11T05:53:41.442Z,14.23
2022-10-11T05:56:22.026Z,14.21
2022-10-11T05:58:50.982Z,14.32
2022-10-11T06:01:23.733Z,14.39
2022-10-11T06:03:52.390Z,14.51
2022-10-11T06:06:21.120Z,14.44
2022-10-11T06:08:49.296Z,14.43
2022-10-11T06:11:21.603Z,14.44
2022-10-11T06:13:49.830Z,14.44
2022-10-11T06:16:17.833Z,14.53
2022-10-11T06:18:45.936Z,14.68
2022-10-11T06:21:15.579Z,14.79
2022-10-11T06:23:43.705Z,14.78
2022-10-11T06:26:12.061Z,14.78
2022-10-11T06:28:41.897Z,14.77
2022-10-11T06:31:10.467Z,14.77
2022-10-11T06:33:38.781Z,14.82
2022-10-11T06:36:09.878Z,14.81
2022-10-11T06:38:42.352Z,14.86
2022-10-11T06:41:17.172Z,14.95
2022-10-11T06:43:50.331Z,15.01
2022-10-11T06:46:19.003Z,15.02
2022-10-11T06:48:48.324Z,15.12
2022-10-11T06:51:18.210Z,15.06
2022-10-11T06:53:50.861Z,15.14
2022-10-11T06:56:20.080Z,15.06
2022-10-11T06:58:51.117Z,14.84
2022-10-11T07:01:21.402Z,14.82
2022-10-11T07:03:49.863Z,14.56
2022-10-11T07:06:19.269Z,14.52
2022-10-11T07:08:47.656Z,14.68
2022-10-11T07:11:17.481Z,14.78
2022-10-11T07:13:52.124Z,14.78
2022-10-11T07:16:21.042Z,15.02
2022-10-11T07:18:49.945Z,15.00
2022-10-11T07:21:18.194Z,14.97
2022-10-11T07:23:46.275Z,14.81
2022-10-11T07:26:14.397Z,14.60
2022-10-11T07:28:42.997Z,14.59
2022-10-11T07:31:14.938Z,14.91
2022-10-11T07:33:43.240Z,14.93
2022-10-11T07:36:12.099Z,15.00
2022-10-11T07:38:41.474Z,15.20
2022-10-11T07:41:10.781Z,15.29
2022-10-11T07:43:39.821Z,15.35
2022-10-11T07:46:08.699Z,15.24
2022-10-11T07:48:38.883Z,15.33
2022-10-11T07:51:09.232Z,15.49
2022-10-11T07:53:41.310Z,15.60
2022-10-11T07:56:10.210Z,15.47
2022-10-11T07:58:38.543Z,15.30
2022-10-11T08:01:07.257Z,15.72
2022-10-11T08:03:35.717Z,16.03
2022-10-11T08:06:07.566Z,16.34
2022-10-11T08:08:37.691Z,16.13
2022-10-11T08:11:08.020Z,15.88
2022-10-11T08:13:37.035Z,15.92
2022-10-11T08:16:16.318Z,15.89
2022-10-11T08:18:44.655Z,16.19
2022-10-11T08:21:17.185Z,16.56
2022-10-11T08:23:45.172Z,16.74
2022-10-11T08:26:14.913Z,16.79
2022-10-11T08:28:43.046Z,17.00
2022-10-11T08:31:14.156Z,17.08
2022-10-11T08:33:42.300Z,17.24
2022-10-11T08:36:11.126Z,17.26
2022-10-11T08:38:41.618Z,16.98
2022-10-11T08:41:27.467Z,16.76
2022-10-11T08:44:04.253Z,16.79
2022-10-11T08:46:35.167Z,17.08
2022-10-11T08:49:04.288Z,17.28
2022-10-11T08:51:37.267Z,16.85
2022-10-11T08:54:14.085Z,17.06
2022-10-11T08:56:43.721Z,16.90
2022-10-11T08:59:25.851Z,16.83
2022-10-11T09:02:00.695Z,17.21
2022-10-11T09:04:28.875Z,17.31
2022-10-11T09:07:05.193Z,17.44
2022-10-11T09:09:55.879Z,17.34
2022-10-11T09:12:40.696Z,17.17
2022-10-11T09:15:26.182Z,17.16
2022-10-11T09:18:19.778Z,17.46
2022-10-11T09:20:57.011Z,17.28
2022-10-11T09:23:46.980Z,17.09
2022-10-11T09:26:23.136Z,17.44
2022-10-11T09:29:01.137Z,17.34
2022-10-11T09:31:30.578Z,17.32
2022-10-11T09:34:00.249Z,17.28
2022-10-11T09:36:38.885Z,17.29
2022-10-11T09:39:17.139Z,17.96
2022-10-11T09:41:53.736Z,18.06
2022-10-11T09:44:24.514Z,18.19
2022-10-11T09:46:54.301Z,18.22
2022-10-11T09:49:29.720Z,18.29
2022-10-11T09:52:00.331Z,18.67
2022-10-11T09:54:39.913Z,18.56
2022-10-11T09:57:20.672Z,18.55
2022-10-11T10:00:02.105Z,18.47
2022-10-11T10:02:30.968Z,18.54
2022-10-11T10:05:05.914Z,18.48
2022-10-11T10:07:35.879Z,18.40
2022-10-11T10:10:28.654Z,18.66
2022-10-11T10:13:00.287Z,18.53
2022-10-11T10:15:31.148Z,18.59
2022-10-11T10:18:00.110Z,18.80
2022-10-11T10:20:32.615Z,18.84
2022-10-11T10:23:08.476Z,18.78
2022-10-11T10:25:43.041Z,18.18
2022-10-11T10:28:23.933Z,18.44
2022-10-11T10:30:54.633Z,18.69
2022-10-11T10:33:25.101Z,18.57
2022-10-11T10:35:56.901Z,18.53
2022-10-11T10:38:29.473Z,18.42
2022-10-11T10:40:59.268Z,18.42
2022-10-11T10:43:34.583Z,18.98
2022-10-11T10:46:27.750Z,19.13
2022-10-11T10:49:41.535Z,18.59
2022-10-11T10:52:06.075Z,18.31
2022-10-11T10:54:43.899Z,18.32
2022-10-11T10:57:19.306Z,18.39
2022-10-11T11:00:04.005Z,18.68
2022-10-11T11:02:41.892Z,18.94
2022-10-11T11:05:24.591Z,19.26
2022-10-11T11:08:00.840Z,19.47
2022-10-11T11:10:37.823Z,19.62
2022-10-11T11:13:20.092Z,19.78
2022-10-11T11:15:56.099Z,19.81
2022-10-11T11:18:31.230Z,19.58
2022-10-11T11:21:18.347Z,19.66
2022-10-11T11:23:56.230Z,19.67
2022-10-11T11:26:30.358Z,19.79
2022-10-11T11:29:09.043Z,19.98
2022-10-11T11:32:00.368Z,19.77
2022-10-11T11:34:33.246Z,19.81
2022-10-11T11:37:06.831Z,19.69
2022-10-11T11:39:43.463Z,19.51
2022-10-11T11:42:16.850Z,19.42
2022-10-11T11:44:48.147Z,19.21
2022-10-11T11:47:23.549Z,19.23
2022-10-11T11:49:59.799Z,19.27
2022-10-11T11:52:31.988Z,19.36
2022-10-11T11:55:10.627Z,19.46
2022-10-11T11:58:22.407Z,19.61
2022-10-11T12:01:26.447Z,19.89
2022-10-11T12:04:03.633Z,19.79
2022-10-11T12:06:35.897Z,19.68
2022-10-11T12:09:10.654Z,19.64
2022-10-11T12:11:53.037Z,19.54
2022-10-11T12:14:37.457Z,19.45
2022-10-11T12:17:23.968Z,19.47
2022-10-11T12:20:14.572Z,19.49
2022-10-11T12:23:00.239Z,19.53
2022-10-11T12:25:46.513Z,19.56
2022-10-11T12:29:03.936Z,19.56
2022-10-11T12:31:33.838Z,19.33
2022-10-11T12:34:32.411Z,19.35
2022-10-11T12:37:22.415Z,19.23
2022-10-11T12:39:57.089Z,18.88
2022-10-11T12:42:31.771Z,18.88
2022-10-11T12:45:32.699Z,19.09
2022-10-11T12:48:42.455Z,18.98
2022-10-11T12:51:29.375Z,19.02
2022-10-11T12:54:36.856Z,19.16
2022-10-11T12:57:47.176Z,19.04
2022-10-11T13:00:22.267Z,19.09
2022-10-11T13:02:51.487Z,19.16
2022-10-11T13:05:24.416Z,18.94
2022-10-11T13:07:54.119Z,18.84
2022-10-11T13:10:28.640Z,18.81
2022-10-11T13:13:04.559Z,18.69
2022-10-11T13:15:33.201Z,18.70
2022-10-11T13:18:02.083Z,18.66
2022-10-11T13:20:32.599Z,18.66
2022-10-11T13:23:01.227Z,18.72
2022-10-11T13:25:31.816Z,18.75
2022-10-11T13:28:01.345Z,18.60
2022-10-11T13:30:31.583Z,18.66
2022-10-11T13:33:00.918Z,18.76
2022-10-11T13:35:32.149Z,18.80
2022-10-11T13:38:00.639Z,18.90
2022-10-11T13:40:30.526Z,18.91
2022-10-11T13:43:01.416Z,18.84
2022-10-11T13:45:31.762Z,19.14
2022-10-11T13:47:59.920Z,19.06
2022-10-11T13:50:32.438Z,18.99
2022-10-11T13:53:03.032Z,18.79
2022-10-11T13:55:34.930Z,18.75
2022-10-11T13:58:16.356Z,18.68
2022-10-11T14:00:55.782Z,18.65
2022-10-11T14:03:25.667Z,18.57
2022-10-11T14:05:56.826Z,18.40
2022-10-11T14:08:32.153Z,18.40
2022-10-11T14:11:05.909Z,18.43
2022-10-11T14:13:38.754Z,18.37
2022-10-11T14:16:09.507Z,18.29
2022-10-11T14:18:44.937Z,18.20
2022-10-11T14:21:26.503Z,18.16
2022-10-11T14:23:57.118Z,18.20
2022-10-11T14:26:26.576Z,18.19
2022-10-11T14:28:59.185Z,18.17
2022-10-11T14:31:28.268Z,18.06
2022-10-11T14:33:57.008Z,17.96
2022-10-11T14:36:26.152Z,17.88
2022-10-11T14:38:54.443Z,17.81
2022-10-11T14:41:22.444Z,17.77
2022-10-11T14:43:50.681Z,17.75
2022-10-11T14:46:25.786Z,17.64
2022-10-11T14:48:55.946Z,17.57
2022-10-11T14:51:26.449Z,17.59
2022-10-11T14:53:54.622Z,17.63
2022-10-11T14:56:22.675Z,17.55
2022-10-11T14:58:50.722Z,17.45
2022-10-11T15:01:18.866Z,17.42
2022-10-11T15:03:48.541Z,17.36
2022-10-11T15:06:20.544Z,17.33
2022-10-11T15:08:49.185Z,17.33
2022-10-11T15:11:18.650Z,17.32
2022-10-11T15:13:47.180Z,17.27
2022-10-11T15:16:17.096Z,17.20
2022-10-11T15:18:50.811Z,17.15
2022-10-11T15:21:22.381Z,17.11
2022-10-11T15:23:51.578Z,17.02
2022-10-11T15:26:22.636Z,16.98
2022-10-11T15:28:53.756Z,16.88
2022-10-11T15:31:22.330Z,16.91
2022-10-11T15:33:50.915Z,16.90
2022-10-11T15:36:22.846Z,16.81
2022-10-11T15:38:51.168Z,16.82
2022-10-11T15:41:20.774Z,16.81
2022-10-11T15:43:50.118Z,16.69
2022-10-11T15:46:20.861Z,16.69
2022-10-11T15:48:50.339Z,16.67
2022-10-11T15:51:18.942Z,16.51
2022-10-11T15:53:48.696Z,16.44
2022-10-11T15:56:19.502Z,16.36
2022-10-11T15:58:47.689Z,16.25
2022-10-11T16:01:18.479Z,16.22
2022-10-11T16:03:47.175Z,16.24
2022-10-11T16:06:16.900Z,16.32
2022-10-11T16:08:45.672Z,16.37
2022-10-11T16:11:15.368Z,16.26
2022-10-11T16:13:43.392Z,16.31
2022-10-11T16:16:12.862Z,16.22
2022-10-11T16:18:41.059Z,16.13
2022-10-11T16:21:11.775Z,16.06
2022-10-11T16:23:40.396Z,15.99
2022-10-11T16:26:11.017Z,15.94
2022-10-11T16:28:42.054Z,15.92
2022-10-11T16:31:11.360Z,15.97
2022-10-11T16:33:45.886Z,15.98
2022-10-11T16:36:32.160Z,16.01
2022-10-11T16:39:02.088Z,16.09
2022-10-11T16:41:30.591Z,16.00
2022-10-11T16:44:00.262Z,15.92
2022-10-11T16:46:28.322Z,15.85
2022-10-11T16:48:56.945Z,15.78
2022-10-11T16:51:25.469Z,15.80
2022-10-11T16:53:54.543Z,15.73
2022-10-11T16:56:24.727Z,15.84
2022-10-11T16:58:53.073Z,15.81
2022-10-11T17:01:22.930Z,15.76
2022-10-11T17:03:51.832Z,15.69
2022-10-11T17:06:21.030Z,15.74
2022-10-11T17:08:49.026Z,15.75
2022-10-11T17:11:17.700Z,15.80
2022-10-11T17:13:46.078Z,15.73
2022-10-11T17:16:14.213Z,15.77
2022-10-11T17:18:43.982Z,15.83
2022-10-11T17:21:18.468Z,15.78
2022-10-11T17:23:46.961Z,15.75
2022-10-11T17:26:18.514Z,15.67
2022-10-11T17:28:47.026Z,15.61
2022-10-11T17:31:15.490Z,15.66
2022-10-11T17:33:45.346Z,15.68
2022-10-11T17:36:22.142Z,15.59
2022-10-11T17:38:51.489Z,15.51
2022-10-11T17:41:19.738Z,15.57
2022-10-11T17:43:48.281Z,15.66
2022-10-11T17:46:18.251Z,15.64
2022-10-11T17:48:47.819Z,15.57
2022-10-11T17:51:18.429Z,15.57
2022-10-11T17:53:50.776Z,15.52
2022-10-11T17:56:26.879Z,15.62
2022-10-11T17:59:00.021Z,15.54
2022-10-11T18:01:30.738Z,15.47
2022-10-11T18:04:02.180Z,15.41
2022-10-11T18:06:32.807Z,15.44
2022-10-11T18:09:03.096Z,15.43
2022-10-11T18:11:32.408Z,15.32
2022-10-11T18:14:00.602Z,15.33
2022-10-11T18:16:31.514Z,15.29
2022-10-11T18:19:04.085Z,15.30
2022-10-11T18:21:34.643Z,15.32
2022-10-11T18:24:05.593Z,15.31
2022-10-11T18:26:33.684Z,15.40
2022-10-11T18:29:01.722Z,15.35
2022-10-11T18:31:32.091Z,15.34
2022-10-11T18:34:01.578Z,15.32
2022-10-11T18:36:32.404Z,15.25
2022-10-11T18:39:02.428Z,15.19
2022-10-11T18:41:32.338Z,15.20
2022-10-11T18:44:03.061Z,15.20
2022-10-11T18:46:32.019Z,15.13
2022-10-11T18:49:02.853Z,15.09
2022-10-11T18:51:33.942Z,15.07
2022-10-11T18:54:02.710Z,15.14
2022-10-11T18:56:32.156Z,15.08
2022-10-11T18:59:00.468Z,15.05
2022-10-11T19:01:31.266Z,15.20
2022-10-11T19:04:02.846Z,15.12
2022-10-11T19:06:35.511Z,15.03
2022-10-11T19:09:08.504Z,15.00
2022-10-11T19:11:36.826Z,15.00
2022-10-11T19:14:07.618Z,15.00
2022-10-11T19:16:38.536Z,14.97
2022-10-11T19:19:09.472Z,14.95
2022-10-11T19:21:37.498Z,14.96
2022-10-11T19:24:06.066Z,14.97
2022-10-11T19:26:36.250Z,15.02
2022-10-11T19:29:06.737Z,15.02
2022-10-11T19:31:37.962Z,15.10
2022-10-11T19:34:07.584Z,15.10
2022-10-11T19:36:36.966Z,15.08
2022-10-11T19:39:06.717Z,15.02
2022-10-11T19:41:34.969Z,15.00
2022-10-11T19:44:03.344Z,15.04
2022-10-11T19:46:50.354Z,15.04
2022-10-11T19:49:22.752Z,15.02
2022-10-11T19:51:51.496Z,14.99
2022-10-11T19:54:19.926Z,14.98
2022-10-11T19:56:51.820Z,14.95
2022-10-11T19:59:21.004Z,14.92
2022-10-11T20:01:52.743Z,14.91
2022-10-11T20:04:53.298Z,14.89
2022-10-11T20:07:11.645Z,14.82
2022-10-11T20:09:39.876Z,14.82
2022-10-11T20:12:08.518Z,14.85
2022-10-11T20:14:36.914Z,14.82
2022-10-11T20:17:05.197Z,14.84
2022-10-11T20:19:34.667Z,14.79
2022-10-11T20:22:03.218Z,14.79
2022-10-11T20:24:33.656Z,14.80
2022-10-11T20:27:04.247Z,14.78
2022-10-11T20:29:32.544Z,14.80
2022-10-11T20:32:00.711Z,14.76
2022-10-11T20:34:29.139Z,14.80
2022-10-11T20:36:58.833Z,14.92
2022-10-11T20:39:27.890Z,14.93
2022-10-11T20:41:55.989Z,14.93
2022-10-11T20:44:24.055Z,14.92
2022-10-11T20:46:53.376Z,14.77
2022-10-11T20:49:22.668Z,14.67
2022-10-11T20:51:51.276Z,14.66
2022-10-11T20:54:20.646Z,14.68
2022-10-11T20:56:48.794Z,14.68
2022-10-11T20:59:16.839Z,14.62
2022-10-11T21:01:44.960Z,14.62
2022-10-11T21:04:19.625Z,14.65
2022-10-11T21:06:48.290Z,14.66
2022-10-11T21:09:17.286Z,14.68
2022-10-11T21:11:47.456Z,14.72
2022-10-11T21:14:15.484Z,14.76
2022-10-11T21:16:43.777Z,14.67
2022-10-11T21:19:16.598Z,14.65
2022-10-11T21:21:53.352Z,14.62
2022-10-11T21:24:22.099Z,14.59
2022-10-11T21:26:51.555Z,14.57
2022-10-11T21:29:19.599Z,14.58
2022-10-11T21:31:47.745Z,14.59
2022-10-11T21:34:15.854Z,14.59
2022-10-11T21:36:44.418Z,14.57
2022-10-11T21:39:12.470Z,14.56
2022-10-11T21:41:42.264Z,14.57
2022-10-11T21:44:12.067Z,14.55
2022-10-11T21:49:28.712Z,14.48
2022-10-11T21:51:56.988Z,14.47
2022-10-11T21:54:24.986Z,14.49
2022-10-11T21:56:52.984Z,14.49
2022-10-11T21:59:22.380Z,14.48
2022-10-11T22:01:50.445Z,14.50
2022-10-11T22:04:18.574Z,14.57
2022-10-11T22:06:46.594Z,14.55
2022-10-11T22:09:14.612Z,14.59
2022-10-11T22:11:42.578Z,14.61
2022-10-11T22:14:10.900Z,14.57
2022-10-11T22:16:40.253Z,14.56
2022-10-11T22:19:08.502Z,14.56
2022-10-11T22:21:39.091Z,14.56
2022-10-11T22:24:09.439Z,14.48
2022-10-11T22:26:37.472Z,14.43
2022-10-11T22:29:05.463Z,14.38
2022-10-11T22:31:33.607Z,14.32
2022-10-11T22:34:03.658Z,14.27
2022-10-11T22:36:33.636Z,14.23
2022-10-11T22:39:02.837Z,14.22
2022-10-11T22:41:30.839Z,14.21
2022-10-11T22:43:58.846Z,14.21
2022-10-11T22:46:26.854Z,14.22
2022-10-11T22:48:54.914Z,14.21
2022-10-11T22:51:24.432Z,14.17
2022-10-11T22:53:52.432Z,14.14
2022-10-11T22:56:20.747Z,14.13
2022-10-11T22:58:48.811Z,14.10
2022-10-11T23:01:17.115Z,14.21
2022-10-11T23:03:48.709Z,14.24
2022-10-11T23:06:16.836Z,14.23
2022-10-11T23:08:46.187Z,14.27
2022-10-11T23:11:14.397Z,14.25
2022-10-11T23:13:42.377Z,14.26
2022-10-11T23:16:12.760Z,14.32
2022-10-11T23:18:41.163Z,14.36
2022-10-11T23:21:10.025Z,14.31
2022-10-11T23:23:39.701Z,14.34
2022-10-11T23:26:12.139Z,14.34
2022-10-11T23:28:40.191Z,14.34
2022-10-11T23:31:10.143Z,14.30
2022-10-11T23:33:38.189Z,14.33
2022-10-11T23:36:06.951Z,14.27
2022-10-11T23:38:34.939Z,14.24
2022-10-11T23:41:03.247Z,14.27
2022-10-11T23:43:32.630Z,14.27
2022-10-11T23:46:00.706Z,14.26
2022-10-11T23:48:28.791Z,14.28
2022-10-11T23:50:56.784Z,14.32
2022-10-11T23:53:24.748Z,14.23
2022-10-11T23:55:52.774Z,14.12
2022-10-11T23:58:20.940Z,14.06
